createdAt,value
2017-05-19T00:00:49.981Z,0
2017-05-19T00:02:00.274Z,0
2017-05-19T00:03:10.508Z,0
2017-05-19T00:04:20.447Z,0
2017-05-19T00:05:29.447Z,0
2017-05-19T00:06:39.081Z,0
2017-05-19T00:07:48.688Z,0
2017-05-19T00:08:58.627Z,0
2017-05-19T00:10:08.546Z,0
2017-05-19T00:11:18.211Z,0
2017-05-19T00:12:27.501Z,0
2017-05-19T00:13:37.412Z,0
2017-05-19T00:14:47.314Z,0
2017-05-19T00:15:57.211Z,0
2017-05-19T00:17:07.445Z,0
2017-05-19T00:18:16.734Z,0
2017-05-19T00:19:26.654Z,0
2017-05-19T00:20:36.581Z,0
2017-05-19T00:21:46.180Z,0
2017-05-19T00:22:55.172Z,0
2017-05-19T00:24:04.793Z,0
2017-05-19T00:25:14.709Z,0
2017-05-19T00:26:24.925Z,0
2017-05-19T00:27:34.239Z,0
2017-05-19T00:28:44.159Z,0
2017-05-19T00:29:54.389Z,0
2017-05-19T00:31:03.997Z,0
2017-05-19T00:32:13.677Z,0
2017-05-19T00:33:23.886Z,0
2017-05-19T00:34:33.821Z,0
2017-05-19T00:35:44.034Z,0
2017-05-19T00:36:53.654Z,0
2017-05-19T00:38:03.882Z,0
2017-05-19T00:39:13.553Z,0
2017-05-19T00:40:23.166Z,0
2017-05-19T00:41:32.782Z,0
2017-05-19T00:42:42.719Z,0
2017-05-19T00:43:52.639Z,0
2017-05-19T00:45:02.250Z,0
2017-05-19T00:46:12.176Z,0
2017-05-19T00:47:22.394Z,0
2017-05-19T00:48:32.622Z,0
2017-05-19T00:49:42.552Z,0
2017-05-19T00:50:52.479Z,0
2017-05-19T00:52:02.705Z,0
2017-05-19T00:53:12.604Z,0
2017-05-19T00:54:22.203Z,0
2017-05-19T00:55:31.808Z,0
2017-05-19T00:56:41.703Z,0
2017-05-19T00:57:51.318Z,0
2017-05-19T00:59:00.941Z,0
2017-05-19T01:00:10.545Z,0
2017-05-19T01:01:20.760Z,0
2017-05-19T01:02:30.687Z,0
2017-05-19T01:03:40.587Z,0
2017-05-19T01:04:50.495Z,0
2017-05-19T01:06:00.098Z,0
2017-05-19T01:07:09.396Z,0
2017-05-19T01:08:18.692Z,0
2017-05-19T01:09:28.919Z,0
2017-05-19T01:10:38.830Z,0
2017-05-19T01:11:48.442Z,0
2017-05-19T01:12:58.353Z,0
2017-05-19T01:14:07.956Z,0
2017-05-19T01:15:17.256Z,0
2017-05-19T01:16:26.876Z,0
2017-05-19T01:17:36.785Z,0
2017-05-19T01:18:46.697Z,0
2017-05-19T01:19:56.914Z,0
2017-05-19T01:21:06.526Z,0
2017-05-19T01:22:16.447Z,0
2017-05-19T01:23:26.373Z,0
2017-05-19T01:24:36.288Z,0
2017-05-19T01:25:45.908Z,0
2017-05-19T01:26:55.821Z,0
2017-05-19T01:28:06.042Z,0
2017-05-19T01:29:15.330Z,0
2017-05-19T01:30:25.240Z,0
2017-05-19T01:31:34.845Z,0
2017-05-19T01:32:45.059Z,0
2017-05-19T01:33:54.661Z,0
2017-05-19T01:35:04.288Z,0
2017-05-19T01:36:14.536Z,0
2017-05-19T01:37:24.750Z,0
2017-05-19T01:38:34.962Z,0
2017-05-19T01:39:44.573Z,0
2017-05-19T01:40:54.480Z,0
2017-05-19T01:42:04.095Z,0
2017-05-19T01:43:14.009Z,0
2017-05-19T01:44:24.228Z,0
2017-05-19T01:45:34.151Z,0
2017-05-19T01:46:43.140Z,0
2017-05-19T01:47:53.052Z,0
2017-05-19T01:49:03.013Z,0
2017-05-19T01:50:13.246Z,0
2017-05-19T01:51:23.484Z,0
2017-05-19T01:52:33.712Z,0
2017-05-19T01:53:43.944Z,0
2017-05-19T01:54:53.545Z,0
2017-05-19T01:56:03.188Z,0
2017-05-19T01:57:12.793Z,0
2017-05-19T01:58:22.088Z,0
2017-05-19T01:59:32.004Z,0
2017-05-19T02:00:41.916Z,0
2017-05-19T02:01:51.834Z,0
2017-05-19T02:03:01.749Z,0
2017-05-19T02:04:11.652Z,0
2017-05-19T02:05:21.562Z,0
2017-05-19T02:06:31.480Z,0
2017-05-19T02:07:41.450Z,0
2017-05-19T02:08:51.682Z,0
2017-05-19T02:10:01.590Z,0
2017-05-19T02:11:11.497Z,0
2017-05-19T02:12:21.414Z,0
2017-05-19T02:13:31.650Z,0
2017-05-19T02:14:41.557Z,0
2017-05-19T02:15:51.461Z,0
2017-05-19T02:17:01.690Z,0
2017-05-19T02:18:11.322Z,0
2017-05-19T02:19:20.945Z,0
2017-05-19T02:20:30.870Z,0
2017-05-19T02:21:41.092Z,0
2017-05-19T02:22:51.297Z,0
2017-05-19T02:24:00.898Z,0
2017-05-19T02:25:10.502Z,0
2017-05-19T02:26:19.810Z,0
2017-05-19T02:27:29.416Z,0
2017-05-19T02:28:39.319Z,0
2017-05-19T02:29:49.238Z,0
2017-05-19T02:30:59.214Z,0
2017-05-19T02:32:09.114Z,0
2017-05-19T02:33:18.404Z,0
2017-05-19T02:34:28.010Z,0
2017-05-19T02:35:37.911Z,0
2017-05-19T02:36:47.533Z,0
2017-05-19T02:37:57.154Z,0
2017-05-19T02:39:07.068Z,0
2017-05-19T02:40:16.667Z,0
2017-05-19T02:41:26.897Z,0
2017-05-19T02:42:36.806Z,0
2017-05-19T02:43:46.401Z,0
2017-05-19T02:44:56.309Z,0
2017-05-19T02:46:06.532Z,0
2017-05-19T02:47:15.215Z,0
2017-05-19T02:48:25.423Z,0
2017-05-19T02:49:35.349Z,0
2017-05-19T02:50:45.261Z,0
2017-05-19T02:51:55.592Z,0
2017-05-19T02:53:05.509Z,0
2017-05-19T02:54:15.737Z,0
2017-05-19T02:55:25.651Z,0
2017-05-19T02:56:35.255Z,0
2017-05-19T02:57:45.180Z,0
2017-05-19T02:58:55.394Z,0
2017-05-19T03:00:05.615Z,0
2017-05-19T03:01:14.932Z,0
2017-05-19T03:02:25.172Z,0
2017-05-19T03:03:35.390Z,0
2017-05-19T03:04:45.001Z,0
2017-05-19T03:05:54.614Z,0
2017-05-19T03:07:04.512Z,0
2017-05-19T03:08:14.742Z,0
2017-05-19T03:09:24.649Z,0
2017-05-19T03:10:33.948Z,0
2017-05-19T03:11:43.861Z,0
2017-05-19T03:12:53.485Z,0
2017-05-19T03:14:03.397Z,0
2017-05-19T03:15:12.696Z,0
2017-05-19T03:16:22.335Z,0
2017-05-19T03:17:31.636Z,0
2017-05-19T03:18:41.567Z,0
2017-05-19T03:19:51.793Z,0
2017-05-19T03:21:02.028Z,4
2017-05-19T03:22:11.929Z,4
2017-05-19T03:23:21.846Z,4
2017-05-19T03:24:31.753Z,4
2017-05-19T03:25:41.974Z,4
2017-05-19T03:26:51.872Z,4
2017-05-19T03:28:02.108Z,4
2017-05-19T03:29:11.718Z,4
2017-05-19T03:30:21.024Z,4
2017-05-19T03:31:31.242Z,4
2017-05-19T03:32:41.151Z,4
2017-05-19T03:33:51.364Z,8
2017-05-19T03:35:01.269Z,8
2017-05-19T03:36:11.173Z,8
2017-05-19T03:37:21.387Z,8
2017-05-19T03:38:31.618Z,12
2017-05-19T03:39:41.539Z,8
2017-05-19T03:40:51.455Z,12
2017-05-19T03:42:01.130Z,12
2017-05-19T03:43:11.104Z,16
2017-05-19T03:44:21.096Z,16
2017-05-19T03:45:31.315Z,16
2017-05-19T03:46:40.994Z,16
2017-05-19T03:47:50.599Z,16
2017-05-19T03:49:00.541Z,16
2017-05-19T03:50:09.853Z,20
2017-05-19T03:51:19.762Z,20
2017-05-19T03:52:29.684Z,24
2017-05-19T03:53:39.366Z,28
2017-05-19T03:54:49.339Z,32
2017-05-19T03:55:59.562Z,32
2017-05-19T03:57:09.472Z,40
2017-05-19T03:58:19.681Z,44
2017-05-19T03:59:29.594Z,52
2017-05-19T04:00:39.198Z,56
2017-05-19T04:01:48.791Z,60
2017-05-19T04:02:58.095Z,64
2017-05-19T04:04:08.019Z,68
2017-05-19T04:05:17.621Z,68
2017-05-19T04:06:27.224Z,76
2017-05-19T04:07:36.832Z,80
2017-05-19T04:08:47.063Z,88
2017-05-19T04:09:56.971Z,96
2017-05-19T04:11:06.887Z,100
2017-05-19T04:12:16.538Z,104
2017-05-19T04:13:26.156Z,112
2017-05-19T04:14:36.435Z,124
2017-05-19T04:15:46.661Z,132
2017-05-19T04:16:56.564Z,124
2017-05-19T04:18:06.800Z,124
2017-05-19T04:19:16.097Z,124
2017-05-19T04:20:25.407Z,120
2017-05-19T04:21:35.338Z,112
2017-05-19T04:22:45.251Z,108
2017-05-19T04:23:55.161Z,104
2017-05-19T04:25:04.784Z,96
2017-05-19T04:26:14.100Z,96
2017-05-19T04:27:24.342Z,96
2017-05-19T04:28:34.292Z,100
2017-05-19T04:29:43.925Z,100
2017-05-19T04:30:53.867Z,104
2017-05-19T04:32:04.105Z,104
2017-05-19T04:33:14.058Z,104
2017-05-19T04:34:23.688Z,112
2017-05-19T04:35:33.300Z,116
2017-05-19T04:36:43.225Z,120
2017-05-19T04:37:52.838Z,128
2017-05-19T04:39:03.086Z,132
2017-05-19T04:40:13.038Z,140
2017-05-19T04:41:22.937Z,152
2017-05-19T04:42:32.540Z,168
2017-05-19T04:43:42.479Z,196
2017-05-19T04:44:51.795Z,224
2017-05-19T04:46:02.047Z,248
2017-05-19T04:47:11.967Z,264
2017-05-19T04:48:21.893Z,284
2017-05-19T04:49:31.500Z,316
2017-05-19T04:50:41.724Z,308
2017-05-19T04:51:51.983Z,248
2017-05-19T04:53:01.893Z,236
2017-05-19T04:54:12.173Z,224
2017-05-19T04:55:22.105Z,244
2017-05-19T04:56:32.016Z,260
2017-05-19T04:57:41.940Z,240
2017-05-19T04:58:51.912Z,200
2017-05-19T05:00:01.549Z,188
2017-05-19T05:01:11.797Z,160
2017-05-19T05:02:21.413Z,144
2017-05-19T05:03:31.038Z,144
2017-05-19T05:04:41.272Z,164
2017-05-19T05:05:51.500Z,168
2017-05-19T05:07:01.135Z,144
2017-05-19T05:08:10.752Z,128
2017-05-19T05:09:20.714Z,96
2017-05-19T05:10:30.942Z,84
2017-05-19T05:11:40.701Z,72
2017-05-19T05:12:50.356Z,64
2017-05-19T05:13:59.986Z,76
2017-05-19T05:15:10.249Z,88
2017-05-19T05:16:20.183Z,92
2017-05-19T05:17:29.842Z,104
2017-05-19T05:18:40.973Z,112
2017-05-19T05:19:51.401Z,112
2017-05-19T05:21:01.015Z,116
2017-05-19T05:22:10.934Z,120
2017-05-19T05:23:20.861Z,136
2017-05-19T05:24:31.099Z,152
2017-05-19T05:25:41.326Z,188
2017-05-19T05:26:51.631Z,220
2017-05-19T05:28:01.251Z,256
2017-05-19T05:29:11.470Z,264
2017-05-19T05:30:21.394Z,248
2017-05-19T05:31:31.069Z,264
2017-05-19T05:32:41.050Z,284
2017-05-19T05:33:51.282Z,288
2017-05-19T05:35:00.897Z,272
2017-05-19T05:36:10.808Z,264
2017-05-19T05:37:21.028Z,276
2017-05-19T05:38:30.954Z,288
2017-05-19T05:39:41.169Z,304
2017-05-19T05:40:51.419Z,276
2017-05-19T05:42:01.091Z,240
2017-05-19T05:43:10.703Z,220
2017-05-19T05:44:20.338Z,208
2017-05-19T05:45:30.548Z,220
2017-05-19T05:46:40.772Z,248
2017-05-19T05:47:50.399Z,304
2017-05-19T05:49:00.628Z,352
2017-05-19T05:50:10.522Z,392
2017-05-19T05:51:20.130Z,452
2017-05-19T05:52:29.731Z,540
2017-05-19T05:53:39.352Z,552
2017-05-19T05:54:49.272Z,488
2017-05-19T05:55:59.176Z,444
2017-05-19T05:57:08.803Z,424
2017-05-19T05:58:18.717Z,420
2017-05-19T05:59:28.623Z,404
2017-05-19T06:00:38.548Z,400
2017-05-19T06:01:48.462Z,444
2017-05-19T06:02:58.065Z,500
2017-05-19T06:04:08.019Z,576
2017-05-19T06:05:17.618Z,648
2017-05-19T06:06:27.842Z,668
2017-05-19T06:07:38.088Z,648
2017-05-19T06:08:47.997Z,604
2017-05-19T06:09:57.292Z,564
2017-05-19T06:11:07.207Z,616
2017-05-19T06:12:16.845Z,736
2017-05-19T06:13:26.450Z,856
2017-05-19T06:14:35.748Z,776
2017-05-19T06:15:45.961Z,616
2017-05-19T06:16:55.556Z,604
2017-05-19T06:18:05.459Z,632
2017-05-19T06:19:15.420Z,576
2017-05-19T06:20:25.338Z,524
2017-05-19T06:21:34.966Z,544
2017-05-19T06:22:44.884Z,664
2017-05-19T06:23:54.789Z,796
2017-05-19T06:25:04.720Z,860
2017-05-19T06:26:14.010Z,820
2017-05-19T06:27:23.932Z,816
2017-05-19T06:28:33.305Z,744
2017-05-19T06:29:43.227Z,648
2017-05-19T06:30:52.832Z,612
2017-05-19T06:32:02.755Z,628
2017-05-19T06:33:12.974Z,632
2017-05-19T06:34:22.588Z,564
2017-05-19T06:35:31.911Z,484
2017-05-19T06:36:42.157Z,448
2017-05-19T06:37:51.769Z,452
2017-05-19T06:39:01.688Z,492
2017-05-19T06:40:11.302Z,488
2017-05-19T06:41:21.535Z,464
2017-05-19T06:42:30.868Z,472
2017-05-19T06:43:40.806Z,464
2017-05-19T06:44:50.737Z,404
2017-05-19T06:46:00.344Z,376
2017-05-19T06:47:10.566Z,388
2017-05-19T06:48:20.480Z,428
2017-05-19T06:49:30.406Z,460
2017-05-19T06:50:40.632Z,480
2017-05-19T06:51:50.561Z,468
2017-05-19T06:53:00.899Z,472
2017-05-19T06:54:09.897Z,488
2017-05-19T06:55:20.171Z,516
2017-05-19T06:56:30.090Z,540
2017-05-19T06:57:39.391Z,552
2017-05-19T06:58:49.633Z,536
2017-05-19T06:59:59.254Z,584
2017-05-19T07:01:08.888Z,652
2017-05-19T07:02:18.813Z,660
2017-05-19T07:03:28.476Z,616
2017-05-19T07:04:38.721Z,612
2017-05-19T07:05:48.646Z,688
2017-05-19T07:06:58.567Z,724
2017-05-19T07:08:08.184Z,664
2017-05-19T07:09:18.115Z,648
2017-05-19T07:10:28.358Z,700
2017-05-19T07:11:38.278Z,660
2017-05-19T07:12:47.574Z,608
2017-05-19T07:13:57.535Z,568
2017-05-19T07:15:06.556Z,584
2017-05-19T07:16:16.469Z,592
2017-05-19T07:17:26.384Z,616
2017-05-19T07:18:36.285Z,644
2017-05-19T07:19:46.218Z,608
2017-05-19T07:20:55.854Z,608
2017-05-19T07:22:05.521Z,624
2017-05-19T07:23:15.451Z,624
2017-05-19T07:24:25.698Z,616
2017-05-19T07:25:35.946Z,644
2017-05-19T07:26:46.172Z,684
2017-05-19T07:27:56.422Z,724
2017-05-19T07:29:06.358Z,700
2017-05-19T07:30:16.297Z,752
2017-05-19T07:31:25.911Z,820
2017-05-19T07:32:34.909Z,772
2017-05-19T07:33:45.141Z,804
2017-05-19T07:34:55.381Z,872
2017-05-19T07:36:05.302Z,916
2017-05-19T07:37:14.615Z,852
2017-05-19T07:38:24.237Z,868
2017-05-19T07:39:34.459Z,892
2017-05-19T07:40:44.695Z,944
2017-05-19T07:41:54.345Z,920
2017-05-19T07:43:04.274Z,932
2017-05-19T07:44:14.193Z,960
2017-05-19T07:45:23.520Z,956
2017-05-19T07:46:32.834Z,924
2017-05-19T07:47:42.137Z,904
2017-05-19T07:48:52.369Z,884
2017-05-19T07:50:02.596Z,864
2017-05-19T07:51:12.528Z,860
2017-05-19T07:52:22.133Z,860
2017-05-19T07:53:31.768Z,872
2017-05-19T07:54:41.386Z,888
2017-05-19T07:55:51.308Z,912
2017-05-19T07:57:01.530Z,920
2017-05-19T07:58:11.157Z,940
2017-05-19T07:59:21.290Z,956
2017-05-19T08:00:31.215Z,924
2017-05-19T08:01:40.538Z,896
2017-05-19T08:02:50.157Z,888
2017-05-19T08:04:00.071Z,876
2017-05-19T08:05:09.695Z,852
2017-05-19T08:06:19.472Z,840
2017-05-19T08:07:29.697Z,832
2017-05-19T08:08:39.929Z,840
2017-05-19T08:09:49.860Z,860
2017-05-19T08:10:59.808Z,872
2017-05-19T08:12:09.126Z,888
2017-05-19T08:13:19.103Z,908
2017-05-19T08:14:29.008Z,928
2017-05-19T08:15:38.623Z,948
2017-05-19T08:16:48.633Z,964
2017-05-19T08:17:58.577Z,964
2017-05-19T08:19:09.045Z,972
2017-05-19T08:20:18.985Z,976
2017-05-19T08:21:28.910Z,980
2017-05-19T08:22:39.185Z,976
2017-05-19T08:23:49.153Z,964
2017-05-19T08:24:58.774Z,968
2017-05-19T08:26:08.380Z,992
2017-05-19T08:27:17.990Z,1024
2017-05-19T08:28:28.214Z,1036
2017-05-19T08:29:38.492Z,1028
2017-05-19T08:30:48.412Z,1036
2017-05-19T08:31:58.640Z,1080
2017-05-19T08:33:08.246Z,1112
2017-05-19T08:34:17.244Z,1120
2017-05-19T08:35:27.470Z,1120
2017-05-19T08:36:37.456Z,1124
2017-05-19T08:37:47.367Z,1132
2017-05-19T08:38:57.594Z,1160
2017-05-19T08:40:07.511Z,1204
2017-05-19T08:41:17.125Z,1280
2017-05-19T08:42:27.360Z,1336
2017-05-19T08:43:36.981Z,1336
2017-05-19T08:44:46.289Z,1324
2017-05-19T08:45:56.524Z,1352
2017-05-19T08:47:06.465Z,1408
2017-05-19T08:48:16.389Z,1448
2017-05-19T08:49:26.604Z,1464
2017-05-19T08:50:36.213Z,1488
2017-05-19T08:51:46.140Z,1460
2017-05-19T08:52:56.374Z,1548
2017-05-19T08:54:06.293Z,1580
2017-05-19T08:55:15.926Z,1532
2017-05-19T08:56:25.904Z,1652
2017-05-19T08:57:35.875Z,1700
2017-05-19T08:58:46.122Z,1712
2017-05-19T09:00:15.241Z,1656
2017-05-19T09:01:24.572Z,1656
2017-05-19T09:02:34.497Z,1656
2017-05-19T09:03:44.110Z,1708
2017-05-19T09:04:54.344Z,1808
2017-05-19T09:06:04.578Z,1852
2017-05-19T09:07:13.900Z,1788
2017-05-19T09:08:23.871Z,1872
2017-05-19T09:09:34.133Z,1932
2017-05-19T09:10:44.380Z,2008
2017-05-19T09:11:54.297Z,2024
2017-05-19T09:13:03.945Z,2000
2017-05-19T09:14:14.180Z,2040
2017-05-19T09:15:23.501Z,1984
2017-05-19T09:16:33.433Z,2084
2017-05-19T09:17:43.062Z,2284
2017-05-19T09:18:52.997Z,2504
2017-05-19T09:20:02.621Z,2488
2017-05-19T09:21:12.537Z,2684
2017-05-19T09:22:22.468Z,2684
2017-05-19T09:23:32.112Z,2524
2017-05-19T09:24:41.785Z,2428
2017-05-19T09:25:52.011Z,2424
2017-05-19T09:27:01.316Z,2336
2017-05-19T09:28:11.575Z,2228
2017-05-19T09:29:21.917Z,2064
2017-05-19T09:30:31.898Z,1948
2017-05-19T09:31:41.215Z,1920
2017-05-19T09:32:51.146Z,1888
2017-05-19T09:34:00.895Z,1796
2017-05-19T09:35:09.911Z,1760
2017-05-19T09:36:18.948Z,1828
2017-05-19T09:37:28.973Z,1860
2017-05-19T09:38:38.889Z,1824
2017-05-19T09:39:48.818Z,1744
2017-05-19T09:40:58.726Z,1676
2017-05-19T09:42:08.331Z,1648
2017-05-19T09:43:17.959Z,1636
2017-05-19T09:44:28.185Z,1680
2017-05-19T09:45:38.100Z,1796
2017-05-19T09:46:48.032Z,1932
2017-05-19T09:47:57.654Z,2020
2017-05-19T09:49:07.899Z,2024
2017-05-19T09:50:16.900Z,2024
2017-05-19T09:51:26.899Z,2104
2017-05-19T09:52:37.154Z,2276
2017-05-19T09:53:47.405Z,2480
2017-05-19T09:54:57.514Z,2604
2017-05-19T09:56:07.453Z,2560
2017-05-19T09:57:17.382Z,2244
2017-05-19T09:58:27.621Z,2040
2017-05-19T09:59:37.925Z,1992
2017-05-19T10:00:48.176Z,1892
2017-05-19T10:01:58.098Z,1600
2017-05-19T10:03:08.034Z,1456
2017-05-19T10:04:17.962Z,1884
2017-05-19T10:05:27.899Z,2236
2017-05-19T10:06:37.828Z,2436
2017-05-19T10:07:47.459Z,2560
2017-05-19T10:08:57.695Z,2728
2017-05-19T10:10:07.642Z,2788
2017-05-19T10:11:17.259Z,2744
2017-05-19T10:12:26.877Z,2636
2017-05-19T10:13:36.878Z,2568
2017-05-19T10:14:46.487Z,2508
2017-05-19T10:15:56.403Z,2648
2017-05-19T10:17:06.041Z,2816
2017-05-19T10:18:15.959Z,2944
2017-05-19T10:19:25.887Z,3016
2017-05-19T10:20:35.510Z,2944
2017-05-19T10:21:45.427Z,2880
2017-05-19T10:22:55.672Z,2812
2017-05-19T10:24:05.322Z,2752
2017-05-19T10:25:14.935Z,2656
2017-05-19T10:26:24.239Z,2608
2017-05-19T10:27:33.254Z,2504
2017-05-19T10:28:43.472Z,2316
2017-05-19T10:29:52.775Z,2116
2017-05-19T10:31:02.388Z,1892
2017-05-19T10:32:12.614Z,1620
2017-05-19T10:33:22.530Z,1564
2017-05-19T10:34:32.142Z,1420
2017-05-19T10:35:41.765Z,1700
2017-05-19T10:36:52.021Z,1840
2017-05-19T10:38:01.953Z,1616
2017-05-19T10:39:11.573Z,1784
2017-05-19T10:40:20.588Z,1744
2017-05-19T10:41:29.904Z,1516
2017-05-19T10:42:39.503Z,1504
2017-05-19T10:43:49.734Z,1636
2017-05-19T10:44:59.345Z,1704
2017-05-19T10:46:08.984Z,1740
2017-05-19T10:47:18.615Z,1732
2017-05-19T10:48:28.224Z,1456
2017-05-19T10:49:38.164Z,1656
2017-05-19T10:50:48.417Z,1772
2017-05-19T10:51:58.643Z,1868
2017-05-19T10:53:08.576Z,1760
2017-05-19T10:54:18.810Z,1796
2017-05-19T10:55:27.806Z,2004
2017-05-19T10:56:37.723Z,2132
2017-05-19T10:57:47.944Z,1956
2017-05-19T10:58:57.557Z,1440
2017-05-19T11:00:07.776Z,1712
2017-05-19T11:01:17.730Z,1788
2017-05-19T11:02:27.730Z,1612
2017-05-19T11:03:37.957Z,1528
2017-05-19T11:04:47.884Z,1272
2017-05-19T11:05:57.495Z,1348
2017-05-19T11:07:07.126Z,1288
2017-05-19T11:08:17.043Z,1824
2017-05-19T11:09:26.947Z,1640
2017-05-19T11:10:36.873Z,1500
2017-05-19T11:11:46.969Z,1388
2017-05-19T11:12:57.215Z,1260
2017-05-19T11:14:07.136Z,1476
2017-05-19T11:15:16.788Z,1956
2017-05-19T11:16:26.102Z,1984
2017-05-19T11:17:36.045Z,1748
2017-05-19T11:18:46.271Z,2172
2017-05-19T11:19:56.190Z,2360
2017-05-19T11:21:05.185Z,2696
2017-05-19T11:22:14.798Z,2368
2017-05-19T11:23:24.425Z,2300
2017-05-19T11:24:34.352Z,1516
2017-05-19T11:25:44.636Z,1560
2017-05-19T11:26:54.283Z,1524
2017-05-19T11:28:03.922Z,1464
2017-05-19T11:29:14.143Z,1676
2017-05-19T11:30:24.078Z,2228
2017-05-19T11:31:34.000Z,2160
2017-05-19T11:32:44.238Z,1920
2017-05-19T11:33:54.160Z,1752
2017-05-19T11:35:03.477Z,1480
2017-05-19T11:36:12.797Z,1112
2017-05-19T11:37:23.060Z,1412
2017-05-19T11:38:32.687Z,1704
2017-05-19T11:39:42.307Z,1748
2017-05-19T11:40:52.262Z,1620
2017-05-19T11:42:02.531Z,1516
2017-05-19T11:43:12.808Z,1016
2017-05-19T11:44:23.053Z,1092
2017-05-19T11:45:33.028Z,1212
2017-05-19T11:46:42.694Z,1492
2017-05-19T11:47:52.955Z,1720
2017-05-19T11:49:03.233Z,1672
2017-05-19T11:50:13.216Z,1728
2017-05-19T11:51:22.877Z,1780
2017-05-19T11:52:33.154Z,1776
2017-05-19T11:53:42.812Z,1732
2017-05-19T11:54:52.779Z,1628
2017-05-19T11:56:02.726Z,1572
2017-05-19T11:57:12.725Z,1564
2017-05-19T11:58:22.377Z,1500
2017-05-19T11:59:32.654Z,1408
2017-05-19T12:00:42.323Z,1344
2017-05-19T12:01:52.292Z,1324
2017-05-19T12:03:02.310Z,1388
2017-05-19T12:04:12.575Z,1452
2017-05-19T12:05:22.834Z,1476
2017-05-19T12:06:33.079Z,1464
2017-05-19T12:07:42.746Z,1420
2017-05-19T12:08:52.700Z,1388
2017-05-19T12:10:02.672Z,1372
2017-05-19T12:11:12.344Z,1336
2017-05-19T12:12:22.028Z,1276
2017-05-19T12:13:32.022Z,1228
2017-05-19T12:14:41.971Z,1224
2017-05-19T12:15:52.225Z,1248
2017-05-19T12:17:01.885Z,1272
2017-05-19T12:18:12.115Z,1276
2017-05-19T12:19:22.073Z,1244
2017-05-19T12:20:31.684Z,1224
2017-05-19T12:21:41.321Z,1248
2017-05-19T12:22:51.284Z,1316
2017-05-19T12:24:00.925Z,1384
2017-05-19T12:25:10.889Z,1448
2017-05-19T12:26:20.518Z,1504
2017-05-19T12:27:30.479Z,1556
2017-05-19T12:28:40.435Z,1592
2017-05-19T12:29:49.776Z,1576
2017-05-19T12:30:59.104Z,1584
2017-05-19T12:32:08.732Z,1600
2017-05-19T12:33:18.668Z,1612
2017-05-19T12:34:28.917Z,1636
2017-05-19T12:35:38.863Z,1684
2017-05-19T12:36:48.198Z,1692
2017-05-19T12:37:58.468Z,1716
2017-05-19T12:39:08.409Z,1756
2017-05-19T12:40:18.038Z,1772
2017-05-19T12:41:27.662Z,1768
2017-05-19T12:42:37.320Z,1724
2017-05-19T12:43:46.935Z,1676
2017-05-19T12:44:56.245Z,1680
2017-05-19T12:46:06.163Z,1760
2017-05-19T12:47:16.403Z,1840
2017-05-19T12:48:26.314Z,1856
2017-05-19T12:49:36.529Z,1804
2017-05-19T12:50:46.468Z,1760
2017-05-19T12:51:56.753Z,1748
2017-05-19T12:53:06.681Z,1740
2017-05-19T12:54:16.913Z,1728
2017-05-19T12:55:26.234Z,1724
2017-05-19T12:56:36.167Z,1704
2017-05-19T12:57:45.476Z,1688
2017-05-19T12:58:55.393Z,1704
2017-05-19T13:00:04.695Z,1724
2017-05-19T13:01:14.533Z,1724
2017-05-19T13:02:24.469Z,1760
2017-05-19T13:03:34.124Z,1812
2017-05-19T13:04:44.205Z,1888
2017-05-19T13:05:53.511Z,1980
2017-05-19T13:07:03.916Z,2012
2017-05-19T13:08:14.409Z,2020
2017-05-19T13:09:24.029Z,2012
2017-05-19T13:10:33.679Z,2000
2017-05-19T13:11:43.591Z,2004
2017-05-19T13:12:52.903Z,2032
2017-05-19T13:14:03.127Z,2080
2017-05-19T13:15:13.405Z,2156
2017-05-19T13:16:23.630Z,2184
2017-05-19T13:17:32.948Z,2160
2017-05-19T13:18:42.583Z,2140
2017-05-19T13:19:52.817Z,2124
2017-05-19T13:21:02.425Z,2208
2017-05-19T13:22:12.665Z,2352
2017-05-19T13:23:22.285Z,2460
2017-05-19T13:24:32.534Z,2436
2017-05-19T13:25:42.447Z,2352
2017-05-19T13:26:52.389Z,2184
2017-05-19T13:28:02.322Z,2128
2017-05-19T13:29:12.269Z,2024
2017-05-19T13:30:22.513Z,1392
2017-05-19T13:31:32.439Z,1096
2017-05-19T13:32:42.672Z,1160
2017-05-19T13:33:52.908Z,996
2017-05-19T13:35:03.150Z,832
2017-05-19T13:36:13.084Z,456
2017-05-19T13:37:23.146Z,376
2017-05-19T13:38:31.846Z,396
2017-05-19T13:39:41.772Z,364
2017-05-19T13:40:51.069Z,580
2017-05-19T13:42:01.022Z,672
2017-05-19T13:43:11.273Z,592
2017-05-19T13:44:21.194Z,588
2017-05-19T13:45:31.488Z,752
2017-05-19T13:46:41.423Z,808
2017-05-19T13:47:51.368Z,820
2017-05-19T13:49:01.302Z,744
2017-05-19T13:50:10.605Z,624
2017-05-19T13:51:20.219Z,532
2017-05-19T13:52:29.855Z,700
2017-05-19T13:53:39.787Z,800
2017-05-19T13:54:49.417Z,656
2017-05-19T13:55:59.357Z,668
2017-05-19T13:57:09.583Z,656
2017-05-19T13:58:19.522Z,692
2017-05-19T13:59:29.134Z,624
2017-05-19T14:00:39.346Z,672
2017-05-19T14:01:49.613Z,768
2017-05-19T14:02:59.222Z,1016
2017-05-19T14:04:08.859Z,1160
2017-05-19T14:05:17.859Z,1224
2017-05-19T14:06:27.791Z,1288
2017-05-19T14:07:37.762Z,1360
2017-05-19T14:08:47.716Z,1296
2017-05-19T14:09:57.650Z,1208
2017-05-19T14:11:07.566Z,1164
2017-05-19T14:12:17.810Z,1144
2017-05-19T14:13:27.750Z,1192
2017-05-19T14:14:37.737Z,1100
2017-05-19T14:15:47.660Z,924
2017-05-19T14:16:57.269Z,884
2017-05-19T14:18:06.899Z,876
2017-05-19T14:19:16.821Z,848
2017-05-19T14:20:27.068Z,860
2017-05-19T14:21:37.297Z,940
2017-05-19T14:22:47.211Z,1144
2017-05-19T14:23:57.137Z,1368
2017-05-19T14:25:07.062Z,1536
2017-05-19T14:26:16.727Z,1604
2017-05-19T14:27:26.399Z,1668
2017-05-19T14:28:36.313Z,1708
2017-05-19T14:29:45.662Z,1724
2017-05-19T14:30:55.271Z,1688
2017-05-19T14:32:05.187Z,1568
2017-05-19T14:33:15.121Z,1416
2017-05-19T14:34:25.073Z,1300
2017-05-19T14:35:34.748Z,1256
2017-05-19T14:36:44.708Z,1220
2017-05-19T14:37:54.357Z,1212
2017-05-19T14:39:03.978Z,1220
2017-05-19T14:40:14.237Z,1220
2017-05-19T14:41:23.550Z,1152
2017-05-19T14:42:33.829Z,1112
2017-05-19T14:43:44.116Z,1088
2017-05-19T14:44:54.054Z,1128
2017-05-19T14:46:03.389Z,1256
2017-05-19T14:47:13.848Z,1612
2017-05-19T14:48:23.786Z,2032
2017-05-19T14:49:33.738Z,2276
2017-05-19T14:50:43.737Z,2296
2017-05-19T14:51:53.684Z,2264
2017-05-19T14:53:03.949Z,2196
2017-05-19T14:54:14.193Z,2160
2017-05-19T14:55:23.817Z,2236
2017-05-19T14:56:33.747Z,2292
2017-05-19T14:57:43.658Z,2212
2017-05-19T14:58:53.602Z,2096
2017-05-19T15:00:03.244Z,1932
2017-05-19T15:01:12.862Z,1744
2017-05-19T15:02:23.153Z,1620
2017-05-19T15:03:33.406Z,1660
2017-05-19T15:04:42.724Z,1656
2017-05-19T15:05:52.958Z,1668
2017-05-19T15:07:02.571Z,1556
2017-05-19T15:08:12.530Z,1508
2017-05-19T15:09:22.750Z,1472
2017-05-19T15:10:32.068Z,1540
2017-05-19T15:11:42.010Z,1648
2017-05-19T15:12:52.246Z,1476
2017-05-19T15:14:01.869Z,1464
2017-05-19T15:15:11.815Z,1560
2017-05-19T15:16:21.736Z,1532
2017-05-19T15:17:31.362Z,1560
2017-05-19T15:18:41.035Z,1628
2017-05-19T15:19:50.947Z,1652
2017-05-19T15:21:00.876Z,1772
2017-05-19T15:22:10.791Z,1800
2017-05-19T15:23:20.758Z,1828
2017-05-19T15:24:30.395Z,1932
2017-05-19T15:25:40.036Z,2116
2017-05-19T15:26:49.653Z,2196
2017-05-19T15:30:32.040Z,1788
2017-05-19T15:31:42.271Z,1668
2017-05-19T15:35:24.567Z,1644
2017-05-19T15:36:34.179Z,1628
2017-05-19T15:37:44.481Z,1612
2017-05-19T15:38:54.794Z,1628
2017-05-19T15:40:04.472Z,1588
2017-05-19T15:41:14.708Z,1528
2017-05-19T15:42:25.363Z,1604
2017-05-19T15:43:34.987Z,1500
2017-05-19T15:44:44.992Z,1312
2017-05-19T15:45:54.638Z,1208
2017-05-19T15:47:05.098Z,1228
2017-05-19T15:48:14.702Z,1220
2017-05-19T15:49:24.626Z,1212
2017-05-19T15:50:34.542Z,1204
2017-05-19T15:51:44.759Z,1112
2017-05-19T15:52:55.006Z,956
2017-05-19T15:54:04.946Z,976
2017-05-19T15:55:14.887Z,952
2017-05-19T15:56:24.837Z,920
2017-05-19T15:57:35.071Z,904
2017-05-19T15:58:44.697Z,868
2017-05-19T15:59:54.694Z,792
2017-05-19T16:01:04.627Z,760
2017-05-19T16:02:14.540Z,712
2017-05-19T16:03:24.481Z,616
2017-05-19T16:04:34.699Z,616
2017-05-19T16:05:44.628Z,672
2017-05-19T16:06:54.938Z,756
2017-05-19T16:08:04.862Z,808
2017-05-19T16:09:14.783Z,832
2017-05-19T16:10:24.079Z,804